createdAt,value
2023-02-15T00:00:57.907Z,39.05
2023-02-15T00:03:24.418Z,41.17
2023-02-15T00:05:51.007Z,40.03
2023-02-15T00:08:17.540Z,45.30
2023-02-15T00:10:44.033Z,41.70
2023-02-15T00:13:10.542Z,42.13
2023-02-15T00:15:37.079Z,43.65
2023-02-15T00:18:03.594Z,45.08
2023-02-15T00:20:30.093Z,44.00
2023-02-15T00:22:56.596Z,42.40
2023-02-15T00:25:23.059Z,43.10
2023-02-15T00:27:50.116Z,47.03
2023-02-15T00:30:16.733Z,44.75
2023-02-15T00:32:43.242Z,46.95
2023-02-15T00:35:10.232Z,44.50
2023-02-15T00:37:36.728Z,45.47
2023-02-15T00:40:03.535Z,45.95
2023-02-15T00:42:30.518Z,42.72
2023-02-15T00:44:57.053Z,45.63
2023-02-15T00:47:25.596Z,42.47
2023-02-15T00:49:52.112Z,42.97
2023-02-15T00:52:18.680Z,45.17
2023-02-15T00:54:45.220Z,43.25
2023-02-15T00:57:11.710Z,44.28
2023-02-15T00:59:38.212Z,49.38
2023-02-15T01:02:04.736Z,47.42
2023-02-15T01:04:31.239Z,48.53
2023-02-15T01:06:57.836Z,50.25
2023-02-15T01:09:24.375Z,49.40
2023-02-15T01:11:50.890Z,45.95
2023-02-15T01:14:18.896Z,45.08
2023-02-15T01:16:45.393Z,41.83
2023-02-15T01:19:11.919Z,51.35
2023-02-15T01:21:41.542Z,48.55
2023-02-15T01:24:14.217Z,44.15
2023-02-15T01:29:07.224Z,43.85
2023-02-15T01:31:33.847Z,43.72
2023-02-15T01:34:00.380Z,49.97
2023-02-15T01:36:26.896Z,46.88
2023-02-15T01:38:53.414Z,48.20
2023-02-15T01:41:27.210Z,47.88
2023-02-15T01:44:01.718Z,50.95
2023-02-15T01:46:44.247Z,51.88
2023-02-15T01:49:16.577Z,44.42
2023-02-15T01:51:44.596Z,44.17
2023-02-15T01:54:25.605Z,45.63
2023-02-15T01:56:53.678Z,43.55
2023-02-15T01:59:22.332Z,46.15
2023-02-15T02:01:50.000Z,40.97
2023-02-15T02:04:25.403Z,48.22
2023-02-15T02:06:52.429Z,44.40
2023-02-15T02:09:18.929Z,47.17
2023-02-15T02:11:47.407Z,50.60
2023-02-15T02:14:14.280Z,50.50
2023-02-15T02:17:15.249Z,53.45
2023-02-15T02:20:07.733Z,54.15
2023-02-15T02:23:00.534Z,46.55
2023-02-15T02:25:59.172Z,45.28
2023-02-15T02:29:04.660Z,50.28
2023-02-15T02:32:02.235Z,51.15
2023-02-15T02:34:38.533Z,48.28
2023-02-15T02:37:25.923Z,51.47
2023-02-15T02:40:04.765Z,51.78
2023-02-15T02:42:43.522Z,48.30
2023-02-15T02:45:15.505Z,57.70
2023-02-15T02:47:52.146Z,56.58
2023-02-15T02:50:23.402Z,59.83
2023-02-15T02:52:52.449Z,55.42
2023-02-15T02:55:35.962Z,53.95
2023-02-15T02:58:19.939Z,54.55
2023-02-15T03:00:56.497Z,51.55
2023-02-15T03:03:33.472Z,63.50
2023-02-15T03:06:02.978Z,55.30
2023-02-15T03:08:43.731Z,55.03
2023-02-15T03:11:10.775Z,55.30
2023-02-15T03:13:37.628Z,52.55
2023-02-15T03:16:24.952Z,47.88
2023-02-15T03:19:00.511Z,60.95
2023-02-15T03:21:58.408Z,65.60
2023-02-15T03:24:28.713Z,66.43
2023-02-15T03:26:55.842Z,66.78
2023-02-15T03:29:25.902Z,71.70
2023-02-15T03:31:57.585Z,69.03
2023-02-15T03:34:24.412Z,73.95
2023-02-15T03:37:12.208Z,77.93
2023-02-15T03:40:29.968Z,80.25
2023-02-15T03:43:19.412Z,74.47
2023-02-15T03:45:55.624Z,83.00
2023-02-15T03:48:35.014Z,79.10
2023-02-15T03:51:23.623Z,79.45
2023-02-15T03:53:51.250Z,81.75
2023-02-15T03:56:17.787Z,76.28
2023-02-15T03:59:02.769Z,84.63
2023-02-15T04:01:54.951Z,85.97
2023-02-15T04:04:33.498Z,77.55
2023-02-15T04:07:00.940Z,81.15
2023-02-15T04:09:46.105Z,87.20
2023-02-15T04:12:12.816Z,88.70
2023-02-15T04:14:57.680Z,84.43
2023-02-15T04:17:24.198Z,89.75
2023-02-15T04:20:09.398Z,82.63
2023-02-15T04:22:54.576Z,79.35
2023-02-15T04:25:21.210Z,85.30
2023-02-15T04:27:55.231Z,78.45
2023-02-15T04:30:24.059Z,80.07
2023-02-15T04:32:50.586Z,73.88
2023-02-15T04:35:17.243Z,83.35
2023-02-15T04:37:44.370Z,79.47
2023-02-15T04:40:13.717Z,84.68
2023-02-15T04:42:40.226Z,82.00
2023-02-15T04:45:07.233Z,77.05
2023-02-15T04:47:34.054Z,87.13
2023-02-15T04:50:00.565Z,83.20
2023-02-15T04:52:27.105Z,86.63
2023-02-15T04:54:53.583Z,75.35
2023-02-15T04:57:20.133Z,74.43
2023-02-15T04:59:46.655Z,78.97
2023-02-15T05:02:13.170Z,79.57
2023-02-15T05:04:39.715Z,82.20
2023-02-15T05:07:06.211Z,80.88
2023-02-15T05:09:32.792Z,78.00
2023-02-15T05:11:59.305Z,78.25
2023-02-15T05:14:25.829Z,81.57
2023-02-15T05:16:52.444Z,85.70
2023-02-15T05:19:18.976Z,82.90
2023-02-15T05:21:45.463Z,79.32
2023-02-15T05:24:30.557Z,82.43
2023-02-15T05:27:15.795Z,94.20
2023-02-15T05:29:42.314Z,83.57
2023-02-15T05:32:09.004Z,93.10
2023-02-15T05:34:35.583Z,87.40
2023-02-15T05:37:02.184Z,95.38
2023-02-15T05:39:28.743Z,98.63
2023-02-15T05:41:55.248Z,94.45
2023-02-15T05:44:21.776Z,102.25
2023-02-15T05:46:48.279Z,100.43
2023-02-15T05:49:14.791Z,107.70
2023-02-15T05:51:41.330Z,294.52
2023-02-15T05:54:07.938Z,267.80
2023-02-15T05:56:34.741Z,228.40
2023-02-15T05:59:01.264Z,404.50
2023-02-15T06:01:27.776Z,246.32
2023-02-15T06:03:55.226Z,168.63
2023-02-15T06:06:21.934Z,235.35
2023-02-15T06:08:48.634Z,409.58
2023-02-15T06:11:15.485Z,249.52
2023-02-15T06:13:42.369Z,349.65
2023-02-15T06:16:09.190Z,175.43
2023-02-15T06:18:36.060Z,370.85
2023-02-15T06:21:03.264Z,348.98
2023-02-15T06:23:29.793Z,136.75
2023-02-15T06:25:56.469Z,282.77
2023-02-15T06:28:23.072Z,351.67
2023-02-15T06:30:49.638Z,655.58
2023-02-15T06:33:16.129Z,605.83
2023-02-15T06:35:42.787Z,370.58
2023-02-15T06:38:09.322Z,476.17
2023-02-15T06:40:35.851Z,124.95
2023-02-15T06:43:02.367Z,339.55
2023-02-15T06:45:28.975Z,374.92
2023-02-15T06:47:55.485Z,445.70
2023-02-15T06:50:22.002Z,247.63
2023-02-15T06:52:48.502Z,139.27
2023-02-15T06:55:15.138Z,200.27
2023-02-15T06:57:41.660Z,168.30
2023-02-15T07:00:09.166Z,179.20
2023-02-15T07:02:35.693Z,158.82
2023-02-15T07:05:02.303Z,128.60
2023-02-15T07:07:28.835Z,142.73
2023-02-15T07:09:55.397Z,162.07
2023-02-15T07:12:40.670Z,154.68
2023-02-15T07:15:08.617Z,106.85
2023-02-15T07:17:36.453Z,153.52
2023-02-15T07:20:05.921Z,154.65
2023-02-15T07:22:32.519Z,450.48
2023-02-15T07:24:59.072Z,350.23
2023-02-15T07:27:25.630Z,315.88
2023-02-15T07:29:52.217Z,91.28
2023-02-15T07:32:18.760Z,108.60
2023-02-15T07:34:45.312Z,123.38
2023-02-15T07:37:11.833Z,323.08
2023-02-15T07:39:42.175Z,438.77
2023-02-15T07:42:08.719Z,338.00
2023-02-15T07:44:36.408Z,139.52
2023-02-15T07:47:03.367Z,252.75
2023-02-15T07:49:29.885Z,277.88
2023-02-15T07:51:56.372Z,203.85
2023-02-15T07:54:22.890Z,330.08
2023-02-15T07:56:49.399Z,407.58
2023-02-15T07:59:15.903Z,138.18
2023-02-15T08:01:42.502Z,129.20
2023-02-15T08:04:10.581Z,113.00
2023-02-15T08:06:37.253Z,361.63
2023-02-15T08:09:05.968Z,125.13
2023-02-15T08:11:34.341Z,131.02
2023-02-15T08:14:08.984Z,309.30
2023-02-15T08:16:37.156Z,111.38
2023-02-15T08:19:14.594Z,96.63
2023-02-15T08:21:44.097Z,119.85
2023-02-15T08:24:11.855Z,202.93
2023-02-15T08:26:41.891Z,180.45
2023-02-15T08:29:09.343Z,176.32
2023-02-15T08:31:38.150Z,118.20
2023-02-15T08:34:05.548Z,140.82
2023-02-15T08:36:35.406Z,142.65
2023-02-15T08:39:03.607Z,110.13
2023-02-15T08:41:32.440Z,273.52
2023-02-15T08:44:00.511Z,270.25
2023-02-15T08:46:29.050Z,201.45
2023-02-15T08:48:55.686Z,128.88
2023-02-15T08:51:24.485Z,65.53
2023-02-15T08:53:53.908Z,110.32
2023-02-15T08:56:23.698Z,75.40
2023-02-15T08:58:50.728Z,120.05
2023-02-15T09:01:21.465Z,106.22
2023-02-15T09:03:50.465Z,222.70
2023-02-15T09:06:17.776Z,130.93
2023-02-15T09:08:44.328Z,76.78
2023-02-15T09:11:13.817Z,54.88
2023-02-15T09:13:40.892Z,54.47
2023-02-15T09:16:09.886Z,52.80
2023-02-15T09:18:38.681Z,64.40
2023-02-15T09:21:09.584Z,67.90
2023-02-15T09:23:36.351Z,59.70
2023-02-15T09:26:08.355Z,51.65
2023-02-15T09:28:35.115Z,53.60
2023-02-15T09:31:09.130Z,63.92
2023-02-15T09:33:36.440Z,52.65
2023-02-15T09:36:04.377Z,61.80
2023-02-15T09:38:31.137Z,51.83
2023-02-15T09:41:37.055Z,46.00
2023-02-15T09:44:20.453Z,44.65
2023-02-15T09:47:08.935Z,44.97
2023-02-15T09:49:48.476Z,46.05
2023-02-15T09:52:48.898Z,43.55
2023-02-15T09:55:43.060Z,48.83
2023-02-15T09:58:38.051Z,45.42
2023-02-15T10:01:29.331Z,43.70
2023-02-15T10:04:01.636Z,43.60
2023-02-15T10:06:42.937Z,43.10
2023-02-15T10:09:34.288Z,40.15
2023-02-15T10:12:19.171Z,42.38
2023-02-15T10:15:13.397Z,41.20
2023-02-15T10:17:52.037Z,46.33
2023-02-15T10:20:29.048Z,43.35
2023-02-15T10:23:09.851Z,42.80
2023-02-15T10:25:48.242Z,44.88
2023-02-15T10:28:19.396Z,44.22
2023-02-15T10:30:51.727Z,47.45
2023-02-15T10:33:30.877Z,46.53
2023-02-15T10:36:20.681Z,45.58
2023-02-15T10:39:26.911Z,50.92
2023-02-15T10:42:24.968Z,44.13
2023-02-15T10:45:19.931Z,45.72
2023-02-15T10:48:23.082Z,46.70
2023-02-15T10:50:54.043Z,48.50
2023-02-15T10:55:59.274Z,50.50
2023-02-15T10:58:51.802Z,45.65
2023-02-15T11:01:24.455Z,48.80
2023-02-15T11:04:24.444Z,44.97
2023-02-15T11:06:54.444Z,45.88
2023-02-15T11:09:23.123Z,41.22
2023-02-15T11:11:52.496Z,43.30
2023-02-15T11:14:22.609Z,42.97
2023-02-15T11:16:55.886Z,42.53
2023-02-15T11:19:29.963Z,44.40
2023-02-15T11:22:00.684Z,41.90
2023-02-15T11:24:29.236Z,42.45
2023-02-15T11:27:00.804Z,37.05
2023-02-15T11:29:33.311Z,39.75
2023-02-15T11:32:12.658Z,41.22
2023-02-15T11:34:44.010Z,39.78
2023-02-15T11:37:18.231Z,34.50
2023-02-15T11:39:45.340Z,37.35
2023-02-15T11:42:16.458Z,37.78
2023-02-15T11:44:53.152Z,38.33
2023-02-15T11:47:19.695Z,37.20
2023-02-15T11:49:46.498Z,34.53
2023-02-15T11:52:14.460Z,40.15
2023-02-15T11:54:43.160Z,34.08
2023-02-15T11:57:19.065Z,34.00
2023-02-15T11:59:51.050Z,33.88
2023-02-15T12:02:20.871Z,32.85
2023-02-15T12:05:14.753Z,34.65
2023-02-15T12:07:48.160Z,31.77
2023-02-15T12:10:22.042Z,35.92
2023-02-15T12:12:48.622Z,31.00
2023-02-15T12:15:15.239Z,31.00
2023-02-15T12:17:49.622Z,34.17
2023-02-15T12:20:16.023Z,31.58
2023-02-15T12:23:04.322Z,30.73
2023-02-15T12:25:39.629Z,30.42
2023-02-15T12:28:21.524Z,32.88
2023-02-15T12:30:48.119Z,31.48
2023-02-15T12:33:19.145Z,30.88
2023-02-15T12:35:50.231Z,29.23
2023-02-15T12:40:58.680Z,27.35
2023-02-15T12:43:33.184Z,25.08
2023-02-15T12:46:21.786Z,27.60
2023-02-15T12:48:48.503Z,25.38
2023-02-15T12:51:16.358Z,26.08
2023-02-15T12:53:45.050Z,24.77
2023-02-15T12:56:12.099Z,27.95
2023-02-15T12:58:40.486Z,24.30
2023-02-15T13:01:14.033Z,23.38
2023-02-15T13:03:55.675Z,24.45
2023-02-15T13:06:22.675Z,24.38
2023-02-15T13:08:51.919Z,24.77
2023-02-15T13:11:35.354Z,25.35
2023-02-15T13:14:03.935Z,23.52
2023-02-15T13:16:36.306Z,21.40
2023-02-15T13:19:41.111Z,22.52
2023-02-15T13:22:14.310Z,25.58
2023-02-15T13:24:44.450Z,22.50
2023-02-15T13:27:16.176Z,23.37
2023-02-15T13:29:45.775Z,20.40
2023-02-15T13:32:29.887Z,21.08
2023-02-15T13:35:01.795Z,22.63
2023-02-15T13:37:49.845Z,19.92
2023-02-15T13:40:47.118Z,18.83
2023-02-15T13:43:32.104Z,19.52
2023-02-15T13:46:15.719Z,18.85
2023-02-15T13:49:11.146Z,21.88
2023-02-15T13:52:05.352Z,19.60
2023-02-15T13:54:56.967Z,24.27
2023-02-15T13:57:26.638Z,20.15
2023-02-15T14:00:24.118Z,18.90
2023-02-15T14:02:55.630Z,19.83
2023-02-15T14:05:49.972Z,19.42
2023-02-15T14:08:37.590Z,19.60
2023-02-15T14:11:12.222Z,19.00
2023-02-15T14:14:15.601Z,19.48
2023-02-15T14:17:16.245Z,18.13
2023-02-15T14:19:46.824Z,16.45
2023-02-15T14:22:23.865Z,17.42
2023-02-15T14:25:04.405Z,16.25
2023-02-15T14:27:45.601Z,16.05
2023-02-15T14:30:34.155Z,17.13
2023-02-15T14:33:46.629Z,17.23
2023-02-15T14:36:16.654Z,16.20
2023-02-15T14:39:01.678Z,17.38
2023-02-15T14:41:40.452Z,16.90
2023-02-15T14:44:28.226Z,17.65
2023-02-15T14:46:59.911Z,18.42
2023-02-15T14:49:28.800Z,19.15
2023-02-15T14:51:57.987Z,18.05
2023-02-15T14:54:24.614Z,17.35
2023-02-15T14:57:03.429Z,17.80
2023-02-15T14:59:44.311Z,18.42
2023-02-15T15:02:18.912Z,16.55
2023-02-15T15:05:00.322Z,17.88
2023-02-15T15:07:39.900Z,15.05
2023-02-15T15:10:17.827Z,14.35
2023-02-15T15:12:50.531Z,14.25
2023-02-15T15:15:35.744Z,13.82
2023-02-15T15:18:09.456Z,14.30
2023-02-15T15:20:50.956Z,13.38
2023-02-15T15:23:18.964Z,13.43
2023-02-15T15:25:55.326Z,12.75
2023-02-15T15:28:34.007Z,17.38
2023-02-15T15:31:15.129Z,12.30
2023-02-15T15:37:01.433Z,14.07
2023-02-15T15:40:02.871Z,12.95
2023-02-15T15:42:49.670Z,11.85
2023-02-15T15:45:50.665Z,12.73
2023-02-15T15:48:39.779Z,12.18
2023-02-15T15:51:29.616Z,10.70
2023-02-15T15:53:56.672Z,11.13
2023-02-15T15:56:29.094Z,12.07
2023-02-15T15:58:59.531Z,13.52
2023-02-15T16:01:28.994Z,12.52
2023-02-15T16:03:57.763Z,12.32
2023-02-15T16:06:38.953Z,12.63
2023-02-15T16:11:40.921Z,12.02
2023-02-15T16:14:16.547Z,16.20
2023-02-15T16:16:48.068Z,16.17
2023-02-15T16:19:23.516Z,11.35
2023-02-15T16:21:50.264Z,11.68
2023-02-15T16:24:23.932Z,11.75
2023-02-15T16:27:12.435Z,13.15
2023-02-15T16:29:39.081Z,21.23
2023-02-15T16:32:21.410Z,18.05
2023-02-15T16:34:56.302Z,20.38
2023-02-15T16:37:28.704Z,16.27
2023-02-15T16:39:56.068Z,19.08
2023-02-15T16:42:23.408Z,15.05
2023-02-15T16:44:57.619Z,20.80
2023-02-15T16:47:27.322Z,18.98
2023-02-15T16:49:59.269Z,28.88
2023-02-15T16:52:27.158Z,21.98
2023-02-15T16:54:57.804Z,31.63
2023-02-15T16:57:31.878Z,22.00
2023-02-15T17:00:04.213Z,21.30
2023-02-15T17:02:56.404Z,20.75
2023-02-15T17:05:23.430Z,18.35
2023-02-15T17:07:51.597Z,27.67
2023-02-15T17:10:30.679Z,17.30
2023-02-15T17:13:06.058Z,26.60
2023-02-15T17:15:35.674Z,16.88
2023-02-15T17:18:12.468Z,20.70
2023-02-15T17:20:42.831Z,19.83
2023-02-15T17:23:44.508Z,18.73
2023-02-15T17:26:24.373Z,19.15
2023-02-15T17:28:57.393Z,14.82
2023-02-15T17:31:29.619Z,18.05
2023-02-15T17:33:57.664Z,18.23
2023-02-15T17:36:26.135Z,18.40
2023-02-15T17:38:58.811Z,18.45
2023-02-15T17:41:25.856Z,17.70
2023-02-15T17:43:53.527Z,19.05
2023-02-15T17:46:23.440Z,19.10
2023-02-15T17:48:52.451Z,34.45
2023-02-15T17:51:20.911Z,51.10
2023-02-15T17:54:06.397Z,25.77
2023-02-15T17:56:33.774Z,24.00
2023-02-15T17:59:00.604Z,19.02
2023-02-15T18:01:45.795Z,19.65
2023-02-15T18:04:33.101Z,21.95
2023-02-15T18:07:18.892Z,19.00
2023-02-15T18:10:04.308Z,19.90
2023-02-15T18:12:32.929Z,20.30
2023-02-15T18:15:00.587Z,20.95
2023-02-15T18:17:30.363Z,15.80
2023-02-15T18:19:56.921Z,22.65
2023-02-15T18:22:23.481Z,18.75
2023-02-15T18:24:50.278Z,21.80
2023-02-15T18:27:17.020Z,18.02
2023-02-15T18:29:43.842Z,22.63
2023-02-15T18:32:16.690Z,22.80
2023-02-15T18:34:43.701Z,19.60
2023-02-15T18:37:17.349Z,19.10
2023-02-15T18:39:46.840Z,23.45
2023-02-15T18:42:21.860Z,24.15
2023-02-15T18:44:49.647Z,22.90
2023-02-15T18:47:16.239Z,18.15
2023-02-15T18:49:42.804Z,19.13
2023-02-15T18:52:17.098Z,21.20
2023-02-15T18:54:44.686Z,21.95
2023-02-15T18:57:14.054Z,24.13
2023-02-15T18:59:40.550Z,22.05
2023-02-15T19:02:18.196Z,22.75
2023-02-15T19:04:45.633Z,22.42
2023-02-15T19:07:26.447Z,23.55
2023-02-15T19:09:56.233Z,18.08
2023-02-15T19:12:22.801Z,22.35
2023-02-15T19:14:51.749Z,20.77
2023-02-15T19:17:20.638Z,22.70
2023-02-15T19:19:47.438Z,21.70
2023-02-15T19:22:20.127Z,22.65
2023-02-15T19:24:47.228Z,24.65
2023-02-15T19:27:23.669Z,22.25
2023-02-15T19:29:50.583Z,24.55
2023-02-15T19:32:17.205Z,25.30
2023-02-15T19:34:43.774Z,25.50
2023-02-15T19:37:23.028Z,28.63
2023-02-15T19:39:50.116Z,25.55
2023-02-15T19:42:19.794Z,24.65
2023-02-15T19:44:46.374Z,27.85
2023-02-15T19:47:13.769Z,26.15
2023-02-15T19:49:40.715Z,23.58
2023-02-15T19:52:16.441Z,23.70
2023-02-15T19:54:45.185Z,21.35
2023-02-15T19:57:13.511Z,25.33
2023-02-15T19:59:40.954Z,22.85
2023-02-15T20:02:13.151Z,25.13
2023-02-15T20:04:40.520Z,24.70
2023-02-15T20:07:22.049Z,24.92
2023-02-15T20:09:48.577Z,23.65
2023-02-15T20:12:24.358Z,22.70
2023-02-15T20:14:51.534Z,23.70
2023-02-15T20:17:18.045Z,23.13
2023-02-15T20:19:46.085Z,22.80
2023-02-15T20:22:33.707Z,23.52
2023-02-15T20:25:01.142Z,24.75
2023-02-15T20:27:27.822Z,23.75
2023-02-15T20:29:56.784Z,30.60
2023-02-15T20:32:23.944Z,27.77
2023-02-15T20:34:51.225Z,29.90
2023-02-15T20:37:34.051Z,30.42
2023-02-15T20:40:00.700Z,32.35
2023-02-15T20:42:27.222Z,31.13
2023-02-15T20:44:53.750Z,28.55
2023-02-15T20:47:20.324Z,28.42
2023-02-15T20:49:46.850Z,27.33
2023-02-15T20:52:19.356Z,32.15
2023-02-15T20:54:45.831Z,32.97
2023-02-15T20:57:12.700Z,29.58
2023-02-15T20:59:40.198Z,28.30
2023-02-15T21:02:19.501Z,31.75
2023-02-15T21:04:46.275Z,32.85
2023-02-15T21:07:17.402Z,34.20
2023-02-15T21:09:44.863Z,37.28
2023-02-15T21:12:14.358Z,36.75
2023-02-15T21:14:41.133Z,37.08
2023-02-15T21:17:11.397Z,45.50
2023-02-15T21:19:40.819Z,33.03
2023-02-15T21:22:12.221Z,34.53
2023-02-15T21:27:07.095Z,32.33
2023-02-15T21:29:33.978Z,37.10
2023-02-15T21:32:02.367Z,33.75
2023-02-15T21:34:28.945Z,31.63
2023-02-15T21:36:55.509Z,34.30
2023-02-15T21:39:24.185Z,33.17
2023-02-15T21:42:10.615Z,31.25
2023-02-15T21:44:55.827Z,36.17
2023-02-15T21:47:50.493Z,49.55
2023-02-15T21:50:41.628Z,35.95
2023-02-15T21:55:36.918Z,38.65
2023-02-15T21:58:03.538Z,43.72
2023-02-15T22:00:30.660Z,44.45
2023-02-15T22:02:58.870Z,40.92
2023-02-15T22:05:31.248Z,36.00
2023-02-15T22:07:57.989Z,38.55
2023-02-15T22:10:29.936Z,34.28
2023-02-15T22:12:56.809Z,40.08
2023-02-15T22:15:25.367Z,36.03
2023-02-15T22:17:53.180Z,39.28
2023-02-15T22:20:21.741Z,42.92
2023-02-15T22:22:48.901Z,38.47
2023-02-15T22:25:17.522Z,36.92
2023-02-15T22:27:45.223Z,40.85
2023-02-15T22:30:29.150Z,39.30
2023-02-15T22:32:57.058Z,38.08
2023-02-15T22:35:26.237Z,41.75
2023-02-15T22:37:52.883Z,39.53
2023-02-15T22:40:20.179Z,35.90
2023-02-15T22:42:48.956Z,35.47
2023-02-15T22:45:20.616Z,39.28
2023-02-15T22:47:48.861Z,40.03
2023-02-15T22:50:22.411Z,38.92
2023-02-15T22:52:49.198Z,38.20
2023-02-15T22:55:17.012Z,34.95
2023-02-15T22:57:45.190Z,36.10
2023-02-15T23:00:20.601Z,33.97
2023-02-15T23:02:47.478Z,36.05
2023-02-15T23:05:25.526Z,34.78
2023-02-15T23:07:52.301Z,35.85
2023-02-15T23:10:23.633Z,35.03
2023-02-15T23:13:11.294Z,33.85
2023-02-15T23:15:38.191Z,39.88
2023-02-15T23:18:20.568Z,37.17
2023-02-15T23:20:59.133Z,31.58
2023-02-15T23:23:53.207Z,32.08
2023-02-15T23:26:28.000Z,38.15
2023-02-15T23:28:56.648Z,39.15
2023-02-15T23:31:26.224Z,37.80
2023-02-15T23:33:53.267Z,41.38
2023-02-15T23:36:27.424Z,37.60
2023-02-15T23:38:55.225Z,35.15
2023-02-15T23:41:27.986Z,37.40
2023-02-15T23:44:02.759Z,35.03
2023-02-15T23:46:36.818Z,34.55
2023-02-15T23:49:14.830Z,36.97
2023-02-15T23:51:45.311Z,35.85
2023-02-15T23:54:12.084Z,36.90
2023-02-15T23:56:39.147Z,35.78
2023-02-15T23:59:05.686Z,35.17
